Time;durP1;ratioP1;P1;durP2;ratioP2;P2;SDS_P1;SDS_P2;PMS_P1;PMS_P2;Temp;Humidity;BMP_temperature;BMP_pressure;BME280_temperature;BME280_humidity;BME280_pressure;Samples;Min_cycle;Max_cycle;Signal;HPM_P1;HPM_P2
2021/06/28 00:00:13;;;;;;;11.70;6.23;;;17.50;99.90;;;18.58;100.00;97959.63;5024708;28;20469;-80
2021/06/28 00:02:43;;;;;;;14.70;7.73;;;17.50;99.90;;;18.57;100.00;97958.81;5024966;28;20458;-80
2021/06/28 00:05:15;;;;;;;22.20;6.77;;;17.50;99.90;;;18.52;100.00;97956.09;5023276;28;20469;-80
2021/06/28 00:07:45;;;;;;;16.30;6.37;;;17.50;99.90;;;18.52;100.00;97950.00;5022564;28;20486;-80
2021/06/28 00:10:21;;;;;;;8.43;6.57;;;17.40;99.90;;;18.38;100.00;97951.31;5025112;28;20470;-80
2021/06/28 00:12:51;;;;;;;8.73;5.80;;;17.30;99.90;;;18.37;100.00;97953.16;5023438;28;20512;-80
2021/06/28 00:15:23;;;;;;;16.93;5.60;;;17.30;99.90;;;18.37;100.00;97947.88;5024781;28;20860;-80
2021/06/28 00:17:53;;;;;;;13.13;5.87;;;17.30;99.90;;;18.43;100.00;97949.53;5023083;28;20514;-80
2021/06/28 00:20:26;;;;;;;10.80;6.10;;;17.40;99.90;;;18.48;100.00;97947.00;5026989;28;20516;-80
2021/06/28 00:22:55;;;;;;;10.53;6.57;;;17.40;99.90;;;18.41;100.00;97946.34;5025956;28;20535;-80
2021/06/28 00:25:23;;;;;;;10.27;6.60;;;17.30;99.90;;;18.44;100.00;97951.16;5025060;28;20955;-80
2021/06/28 00:27:52;;;;;;;8.30;5.67;;;17.40;99.90;;;18.51;100.00;97946.53;5023517;28;20524;-80
2021/06/28 00:30:31;;;;;;;6.33;5.70;;;17.40;99.90;;;18.45;100.00;97946.66;5022815;28;20500;-80
2021/06/28 00:33:01;;;;;;;14.77;5.23;;;17.40;99.90;;;18.37;100.00;97949.69;5029352;28;20478;-80
2021/06/28 00:35:30;;;;;;;13.73;5.90;;;17.30;99.90;;;18.37;100.00;97939.91;5027645;28;20547;-80
2021/06/28 00:37:58;;;;;;;5.67;4.87;;;17.30;99.90;;;18.34;100.00;97950.19;5023109;28;20458;-80
2021/06/28 00:40:28;;;;;;;8.13;4.80;;;17.30;99.90;;;18.15;100.00;97954.09;5026640;28;20493;-80
2021/06/28 00:42:56;;;;;;;9.90;5.87;;;17.10;99.90;;;18.20;100.00;97960.28;5018924;28;20462;-80
2021/06/28 00:45:27;;;;;;;9.37;5.50;;;17.10;99.90;;;18.27;100.00;97963.56;5024414;28;20458;-80
2021/06/28 00:47:59;;;;;;;8.73;5.50;;;17.20;99.90;;;18.24;100.00;97972.00;5022422;28;20973;-80
2021/06/28 00:50:33;;;;;;;8.27;5.90;;;17.20;99.90;;;18.17;100.00;97970.53;5021535;28;20914;-80
2021/06/28 00:53:06;;;;;;;10.00;6.13;;;17.10;99.90;;;18.04;100.00;97971.63;5025208;28;20972;-80
2021/06/28 00:55:35;;;;;;;12.60;6.20;;;17.00;99.90;;;18.06;100.00;97974.81;5019784;28;20497;-80
2021/06/28 00:58:07;;;;;;;8.83;5.23;;;17.00;99.90;;;18.00;100.00;97975.78;5026866;28;21080;-80
2021/06/28 01:00:38;;;;;;;9.67;5.60;;;16.90;99.90;;;18.01;100.00;97983.47;5024536;28;20508;-80
2021/06/28 01:03:08;;;;;;;7.60;5.40;;;17.00;99.90;;;17.97;100.00;97981.56;5023895;28;20512;-80
2021/06/28 01:05:42;;;;;;;8.30;6.67;;;16.90;99.90;;;18.05;100.00;97978.50;5022264;28;20496;-80
2021/06/28 01:08:12;;;;;;;17.40;6.00;;;17.00;99.90;;;18.09;100.00;97985.75;5022733;28;20488;-80
2021/06/28 01:10:40;;;;;;;6.20;5.60;;;17.10;99.90;;;17.99;100.00;97984.75;5022900;28;20488;-80
2021/06/28 01:13:10;;;;;;;7.70;5.60;;;16.90;99.90;;;18.03;100.00;97985.88;5025062;28;20481;-80
2021/06/28 01:15:39;;;;;;;8.37;5.63;;;17.00;99.90;;;17.96;100.00;97986.03;5022218;28;20494;-80
2021/06/28 01:18:09;;;;;;;12.80;5.40;;;16.90;99.90;;;17.98;100.00;97983.13;5023105;28;20498;-81
2021/06/28 01:20:40;;;;;;;11.03;6.53;;;16.90;99.90;;;17.90;100.00;97986.16;5023783;28;22601;-80
2021/06/28 01:23:18;;;;;;;7.17;5.50;;;16.90;99.90;;;17.84;100.00;97982.59;5025307;28;20462;-80
2021/06/28 01:25:49;;;;;;;10.40;5.70;;;16.80;99.90;;;17.90;100.00;97991.47;5023957;28;20466;-80
2021/06/28 01:28:18;;;;;;;7.87;5.20;;;16.80;99.90;;;17.89;100.00;97987.19;5022405;28;20466;-80
2021/06/28 01:30:48;;;;;;;7.27;5.50;;;16.90;99.90;;;17.92;100.00;97986.72;5020353;28;20466;-80
2021/06/28 01:33:18;;;;;;;10.13;5.50;;;16.90;99.90;;;17.92;100.00;97986.72;5029057;28;20458;-80
2021/06/28 01:35:48;;;;;;;6.83;5.47;;;16.90;99.90;;;17.91;100.00;97985.13;5024790;28;20616;-80
2021/06/28 01:38:18;;;;;;;11.50;6.50;;;16.90;99.90;;;17.91;100.00;97983.28;5019822;28;20508;-80
2021/06/28 01:40:48;;;;;;;14.87;5.67;;;16.90;99.90;;;17.96;100.00;97979.94;5024765;28;21534;-80
2021/06/28 01:43:16;;;;;;;11.33;5.30;;;16.90;99.90;;;17.77;100.00;97978.50;5024932;28;20498;-81
2021/06/28 01:45:45;;;;;;;6.27;5.20;;;16.80;99.90;;;17.74;100.00;97981.59;5024065;28;20511;-80
2021/06/28 01:48:14;;;;;;;12.20;5.87;;;16.70;99.90;;;17.83;100.00;97986.31;5019713;28;20470;-80
2021/06/28 01:50:43;;;;;;;12.73;5.90;;;16.80;99.90;;;17.88;100.00;97977.66;5025056;28;20467;-80
2021/06/28 01:53:13;;;;;;;11.40;5.23;;;16.90;99.90;;;17.84;100.00;97977.31;5021296;28;20552;-80
2021/06/28 01:55:43;;;;;;;7.03;5.10;;;16.80;99.90;;;17.86;100.00;97979.75;5022778;28;20490;-80
2021/06/28 01:58:15;;;;;;;9.33;5.20;;;16.80;99.90;;;17.88;100.00;97972.34;5025577;28;20809;-80
2021/06/28 02:00:47;;;;;;;8.37;5.50;;;16.90;99.90;;;17.90;100.00;97968.47;5020797;28;20493;-80
2021/06/28 02:03:19;;;;;;;10.83;5.47;;;16.90;99.90;;;17.88;100.00;97964.41;5024699;28;20956;-79
2021/06/28 02:05:52;;;;;;;9.17;4.90;;;17.00;99.90;;;17.71;100.00;97960.91;5024139;28;20516;-80
2021/06/28 02:08:23;;;;;;;6.67;5.57;;;16.70;99.90;;;17.67;100.00;97965.09;5024941;28;20462;-80
2021/06/28 02:10:56;;;;;;;7.47;6.17;;;16.70;99.90;;;17.63;100.00;97958.66;5025355;28;20515;-80
2021/06/28 02:13:27;;;;;;;7.77;5.10;;;16.60;99.90;;;17.64;100.00;97954.94;5026664;28;20516;-80
2021/06/28 02:15:57;;;;;;;6.87;5.63;;;16.60;99.90;;;17.54;100.00;97955.53;5023949;28;20524;-80
2021/06/28 02:18:27;;;;;;;8.00;5.07;;;16.50;99.90;;;17.59;100.00;97961.75;5023123;28;20470;-80
2021/06/28 02:20:58;;;;;;;5.60;5.00;;;16.60;99.90;;;17.64;100.00;97954.94;5022488;28;20462;-80
2021/06/28 02:23:32;;;;;;;6.87;5.20;;;16.60;99.90;;;17.67;100.00;97954.50;5024395;28;20442;-80
2021/06/28 02:26:05;;;;;;;11.70;5.40;;;16.70;99.90;;;17.66;100.00;97947.59;5025500;28;20486;-80
2021/06/28 02:28:37;;;;;;;8.40;5.27;;;16.60;99.90;;;17.67;100.00;97939.41;5012240;28;20469;-80
2021/06/28 02:31:08;;;;;;;8.53;5.70;;;16.60;99.90;;;17.66;100.00;97937.03;5020923;28;21194;-80
2021/06/28 02:33:39;;;;;;;10.23;5.60;;;16.60;99.90;;;17.43;100.00;97930.72;5027023;28;20462;-80
2021/06/28 02:36:08;;;;;;;13.23;5.13;;;16.40;99.90;;;17.44;100.00;97929.69;5023180;28;20503;-80
2021/06/28 02:38:39;;;;;;;8.40;5.40;;;16.40;99.90;;;17.49;100.00;97921.84;5021682;28;20879;-80
2021/06/28 02:41:10;;;;;;;12.30;5.27;;;16.50;99.90;;;17.57;100.00;97918.06;5025329;28;20535;-80
2021/06/28 02:43:39;;;;;;;10.73;6.57;;;16.60;99.90;;;17.45;100.00;97922.56;5024794;28;20466;-80
2021/06/28 02:46:08;;;;;;;6.67;4.93;;;16.40;99.90;;;17.53;100.00;97915.03;5027705;28;20555;-80
2021/06/28 02:48:37;;;;;;;5.43;4.67;;;16.50;99.90;;;17.60;100.00;97912.28;5024300;28;20462;-80
2021/06/28 02:51:09;;;;;;;8.00;5.80;;;16.60;99.90;;;17.63;100.00;97905.75;5023348;28;20964;-80
2021/06/28 02:53:38;;;;;;;6.30;5.20;;;16.60;99.90;;;17.60;100.00;97886.66;5030841;28;20484;-80
2021/06/28 02:56:15;;;;;;;8.23;5.33;;;16.60;99.90;;;17.59;100.00;97871.84;5027729;28;20466;-80
2021/06/28 02:58:46;;;;;;;10.90;5.30;;;16.60;99.90;;;17.51;100.00;97864.25;5022632;28;20461;-80
2021/06/28 03:01:15;;;;;;;13.57;5.70;;;16.50;99.90;;;17.46;100.00;97869.44;5018045;28;20466;-80
2021/06/28 03:03:45;;;;;;;10.03;5.30;;;16.40;99.90;;;17.61;100.00;97884.81;5020706;28;20528;-80
2021/06/28 03:06:14;;;;;;;11.00;6.10;;;16.60;99.90;;;17.68;100.00;97888.13;5024507;28;20466;-83
2021/06/28 03:08:43;;;;;;;7.03;4.60;;;16.70;99.90;;;17.68;100.00;97887.31;5025811;28;20454;-80
2021/06/28 03:11:16;;;;;;;15.23;5.27;;;16.80;99.90;;;17.68;100.00;97897.91;5022784;28;20521;-80
2021/06/28 03:13:44;;;;;;;6.70;3.77;;;16.80;99.90;;;17.71;100.00;97898.22;5024335;28;21261;-80
2021/06/28 03:16:13;;;;;;;6.50;5.77;;;16.70;99.90;;;17.74;100.00;97899.59;5021887;28;20492;-81
2021/06/28 03:18:42;;;;;;;17.17;5.70;;;16.70;99.90;;;17.73;100.00;97898.00;5022917;28;20924;-80
2021/06/28 03:21:12;;;;;;;6.67;5.10;;;16.80;99.90;;;17.77;100.00;97896.50;5026003;28;20458;-80
2021/06/28 03:23:41;;;;;;;9.20;5.13;;;16.80;99.90;;;17.80;100.00;97888.09;5023800;28;20872;-80
2021/06/28 03:26:10;;;;;;;7.20;5.00;;;16.90;99.90;;;17.65;100.00;97891.25;5024941;28;20516;-80
2021/06/28 03:28:41;;;;;;;8.80;5.07;;;16.70;99.90;;;17.59;100.00;97889.56;5022112;28;20873;-80
2021/06/28 03:31:10;;;;;;;17.87;5.90;;;16.60;99.90;;;17.65;100.00;97896.53;5022029;28;20496;-80
2021/06/28 03:33:39;;;;;;;6.80;4.77;;;16.70;99.90;;;17.52;100.00;97904.72;5020214;28;20485;-81
2021/06/28 03:36:09;;;;;;;8.23;5.43;;;16.60;99.90;;;17.39;100.00;97905.78;5018172;28;20470;-80
2021/06/28 03:38:37;;;;;;;6.60;5.40;;;16.50;99.90;;;17.40;100.00;97912.69;5024250;28;20477;-80
2021/06/28 03:41:06;;;;;;;8.80;5.00;;;16.40;99.90;;;17.43;100.00;97925.41;5019995;28;20485;-81
2021/06/28 03:43:35;;;;;;;9.10;5.97;;;16.40;99.90;;;17.49;100.00;97916.53;5022248;28;20458;-80
2021/06/28 03:46:06;;;;;;;8.70;4.97;;;16.50;99.90;;;17.53;100.00;97915.03;5026972;28;20508;-80
2021/06/28 03:48:35;;;;;;;6.30;5.70;;;16.60;99.90;;;17.52;100.00;97905.53;5029875;28;20450;-80
2021/06/28 03:51:04;;;;;;;7.27;6.03;;;16.60;99.90;;;17.57;100.00;97918.88;5022078;28;20496;-80
2021/06/28 03:53:33;;;;;;;8.03;6.30;;;16.60;99.90;;;17.66;100.00;97923.78;5028191;28;20457;-80
2021/06/28 03:56:06;;;;;;;149.80;82.67;;;16.70;99.90;;;17.68;100.00;97930.44;5027184;28;20496;-81
2021/06/28 03:58:36;;;;;;;17.60;8.23;;;16.70;99.90;;;17.56;100.00;97927.81;5023953;28;20505;-80
2021/06/28 04:01:08;;;;;;;7.23;5.50;;;16.50;99.90;;;17.58;100.00;97939.00;5022553;28;20466;-80
2021/06/28 04:03:37;;;;;;;8.57;5.63;;;16.60;99.90;;;17.61;100.00;97937.72;5021488;28;20443;-80
2021/06/28 04:06:09;;;;;;;6.27;4.97;;;16.70;99.90;;;17.65;100.00;97935.41;5028891;28;20466;-80
2021/06/28 04:08:40;;;;;;;7.53;5.10;;;16.60;99.90;;;17.58;100.00;97941.63;5023447;28;20454;-80
2021/06/28 04:11:09;;;;;;;6.83;5.10;;;16.60;99.90;;;17.54;100.00;97937.00;5023096;28;20450;-80
2021/06/28 04:13:38;;;;;;;6.20;5.50;;;16.60;99.90;;;17.59;100.00;97931.88;5021213;28;21008;-80
2021/06/28 04:16:08;;;;;;;10.87;5.90;;;16.60;99.90;;;17.68;100.00;97935.75;5020347;28;20500;-80
2021/06/28 04:18:36;;;;;;;8.73;5.50;;;16.70;99.90;;;17.73;100.00;97932.41;5019991;28;21167;-82
2021/06/28 04:21:06;;;;;;;11.47;6.07;;;16.80;99.90;;;17.74;100.00;97933.97;5020078;28;20850;-79
2021/06/28 04:23:34;;;;;;;11.10;5.50;;;16.90;99.90;;;17.78;100.00;97935.94;5021349;28;20521;-80
2021/06/28 04:26:03;;;;;;;8.13;5.27;;;16.90;99.90;;;17.73;100.00;97929.75;5023571;28;20454;-80
2021/06/28 04:28:32;;;;;;;7.63;5.20;;;16.80;99.90;;;17.74;100.00;97926.84;5027394;28;20891;-80
2021/06/28 04:31:01;;;;;;;9.23;4.90;;;16.90;99.90;;;17.79;100.00;97934.09;5029726;28;20446;-80
2021/06/28 04:33:31;;;;;;;8.70;4.40;;;16.90;99.90;;;17.63;100.00;97938.31;5028956;28;20434;-80
2021/06/28 04:36:00;;;;;;;6.60;4.60;;;16.70;99.90;;;17.72;100.00;97939.53;5021130;28;20443;-80
2021/06/28 04:38:29;;;;;;;10.00;5.40;;;16.80;99.90;;;17.75;100.00;97940.88;5018347;28;20502;-80
2021/06/28 04:40:57;;;;;;;5.30;4.57;;;16.80;99.90;;;17.79;100.00;97936.75;5028391;28;20482;-80
2021/06/28 04:43:26;;;;;;;8.20;5.03;;;16.80;99.90;;;17.85;100.00;97935.78;5026693;28;20465;-80
2021/06/28 04:45:54;;;;;;;24.87;14.93;;;16.90;99.90;;;17.86;100.00;97948.00;5020976;28;20447;-80
2021/06/28 04:48:23;;;;;;;9.13;5.50;;;16.90;99.90;;;17.79;100.00;97947.31;5025399;28;20937;-79
2021/06/28 04:50:53;;;;;;;5.90;5.30;;;16.90;99.90;;;17.82;100.00;97958.25;5026021;28;20454;-80
2021/06/28 04:53:21;;;;;;;7.50;5.50;;;16.90;99.90;;;17.87;100.00;97958.34;5022476;28;20459;-83
2021/06/28 04:55:50;;;;;;;8.73;6.73;;;16.90;99.90;;;17.89;100.00;97953.63;5016605;28;20936;-80
2021/06/28 04:58:19;;;;;;;7.10;5.77;;;16.90;99.90;;;17.96;100.00;97964.06;5020037;28;20548;-79
2021/06/28 05:00:47;;;;;;;6.53;5.07;;;17.10;99.90;;;17.91;100.00;97958.69;5020585;28;20500;-79
2021/06/28 05:03:15;;;;;;;10.47;4.70;;;17.00;99.90;;;17.92;100.00;97954.97;5025298;28;20458;-80
2021/06/28 05:05:44;;;;;;;6.77;5.27;;;17.00;99.90;;;17.87;100.00;97952.25;5030232;28;20936;-80
2021/06/28 05:08:14;;;;;;;5.70;5.10;;;16.90;99.90;;;17.81;100.00;97956.63;5029790;28;20449;-81
2021/06/28 05:10:43;;;;;;;13.00;5.43;;;16.80;99.90;;;17.79;100.00;97952.63;5030731;28;20482;-80
2021/06/28 05:13:11;;;;;;;7.70;5.07;;;16.80;99.90;;;17.69;100.00;97955.88;5028455;28;20485;-81
2021/06/28 05:15:51;;;;;;;5.10;4.60;;;16.70;99.90;;;17.65;100.00;97956.56;5029445;28;20446;-81
2021/06/28 05:18:32;;;;;;;7.07;5.60;;;16.60;99.90;;;17.65;100.00;97956.56;5030892;28;20500;-81
2021/06/28 05:21:07;;;;;;;7.10;5.07;;;16.60;99.90;;;17.69;100.00;97963.81;5031343;28;20458;-81
2021/06/28 05:23:41;;;;;;;9.80;5.40;;;16.70;99.90;;;17.69;100.00;97957.72;5030743;28;20458;-81
2021/06/28 05:26:10;;;;;;;9.73;5.20;;;16.70;99.90;;;17.71;100.00;97951.13;5029897;28;20541;-80
2021/06/28 05:28:38;;;;;;;10.77;5.27;;;16.70;99.90;;;17.75;100.00;97949.63;5029921;28;20450;-81
2021/06/28 05:31:07;;;;;;;5.80;5.20;;;16.80;99.90;;;17.74;100.00;97949.84;5029439;28;20959;-80
2021/06/28 05:33:44;;;;;;;6.80;4.80;;;16.80;99.90;;;17.72;100.00;97947.47;5023065;28;20516;-81
2021/06/28 05:36:15;;;;;;;10.13;5.10;;;16.80;99.90;;;17.72;100.00;97946.66;5031242;28;20449;-81
2021/06/28 05:38:53;;;;;;;8.40;5.80;;;16.70;99.90;;;17.75;100.00;97951.47;5030465;28;20540;-81
2021/06/28 05:41:25;;;;;;;17.23;5.40;;;16.80;99.90;;;17.83;100.00;97959.03;5029626;28;20508;-81
2021/06/28 05:43:54;;;;;;;8.17;6.30;;;16.90;99.90;;;17.87;100.00;97960.19;5030006;28;20457;-81
2021/06/28 05:46:23;;;;;;;12.83;5.23;;;16.90;99.90;;;17.97;100.00;97955.91;5027297;28;20454;-81
2021/06/28 05:48:51;;;;;;;8.93;5.27;;;17.00;99.90;;;18.05;100.00;97963.44;5029474;28;20468;-80
2021/06/28 05:51:21;;;;;;;12.20;6.27;;;17.10;99.90;;;18.10;100.00;97965.38;5021535;28;20442;-81
2021/06/28 05:53:51;;;;;;;7.50;6.23;;;17.20;99.90;;;18.20;100.00;97960.28;5028669;28;21010;-81
2021/06/28 05:56:24;;;;;;;8.60;6.13;;;17.30;99.90;;;18.29;100.00;97953.53;5029445;28;20446;-81
2021/06/28 05:58:53;;;;;;;5.50;4.77;;;17.40;99.90;;;18.33;100.00;97945.91;5030281;28;20498;-81
2021/06/28 06:01:28;;;;;;;6.67;5.80;;;17.40;99.90;;;18.40;100.00;97949.22;5030843;28;20955;-81
2021/06/28 06:03:59;;;;;;;7.20;5.37;;;17.50;99.90;;;18.42;100.00;97942.66;5027215;28;20494;-81
2021/06/28 06:06:28;;;;;;;10.10;5.33;;;17.60;99.90;;;18.48;100.00;97931.09;5030496;28;20512;-81
2021/06/28 06:09:00;;;;;;;8.07;6.00;;;17.60;99.90;;;18.53;100.00;97935.72;5030660;28;20442;-81
2021/06/28 06:11:29;;;;;;;9.00;5.50;;;17.70;99.90;;;18.52;100.00;97936.75;5028043;28;21076;-81
2021/06/28 06:13:57;;;;;;;9.00;5.40;;;17.70;99.90;;;18.51;100.00;97933.31;5028976;28;21051;-81
2021/06/28 06:16:36;;;;;;;7.73;5.50;;;17.70;99.90;;;18.56;100.00;97936.03;5029247;28;20445;-81
2021/06/28 06:19:12;;;;;;;12.80;6.07;;;17.70;99.90;;;18.60;100.00;97939.00;5022745;28;20489;-81
2021/06/28 06:21:41;;;;;;;9.07;5.87;;;17.80;99.90;;;18.65;100.00;97939.09;5033217;28;20476;-81
2021/06/28 06:24:13;;;;;;;12.77;5.67;;;17.80;99.90;;;18.71;100.00;97929.38;5034811;28;20445;-81
2021/06/28 06:26:46;;;;;;;8.83;6.33;;;17.80;99.90;;;18.73;100.00;97922.78;5034431;28;20457;-81
2021/06/28 06:29:17;;;;;;;22.70;5.33;;;17.80;99.90;;;18.77;100.00;97933.72;5033344;28;20484;-81
2021/06/28 06:31:49;;;;;;;8.90;5.97;;;17.90;99.90;;;18.81;100.00;97930.31;5033722;28;20472;-81
2021/06/28 06:34:24;;;;;;;7.27;6.03;;;18.00;99.90;;;18.87;100.00;97929.38;5033599;28;20511;-81
2021/06/28 06:36:53;;;;;;;33.57;6.60;;;18.10;99.90;;;18.91;100.00;97929.69;5033284;28;20482;-81
2021/06/28 06:39:25;;;;;;;7.70;5.40;;;18.10;99.90;;;18.94;100.00;97931.84;5032691;28;21130;-82
2021/06/28 06:41:54;;;;;;;10.23;5.60;;;18.10;99.90;;;19.01;100.00;97925.34;5033049;28;20968;-81
2021/06/28 06:44:24;;;;;;;9.27;5.63;;;18.20;99.90;;;19.07;100.00;97928.84;5032576;28;20450;-81
2021/06/28 06:46:54;;;;;;;6.60;5.40;;;18.20;99.90;;;19.15;100.00;97919.69;5033619;28;20465;-81
2021/06/28 06:49:50;;;;;;;20.03;6.00;;;18.30;99.90;;;19.22;100.00;97926.41;5028681;28;20442;-81
2021/06/28 06:52:21;;;;;;;6.20;5.10;;;18.40;99.90;;;19.29;100.00;97936.84;5032526;28;20881;-81
2021/06/28 06:54:52;;;;;;;6.80;5.70;;;18.50;99.90;;;19.34;100.00;97935.03;5026751;28;20496;-81
2021/06/28 06:57:22;;;;;;;9.17;5.50;;;18.60;99.90;;;19.42;100.00;97936.50;5033535;28;20939;-81
2021/06/28 06:59:59;;;;;;;10.30;5.13;;;18.60;99.90;;;19.51;100.00;97943.78;5032933;28;20540;-81
2021/06/28 07:02:28;;;;;;;11.60;5.23;;;18.70;99.90;;;19.61;100.00;97934.38;5031522;28;20973;-81
2021/06/28 07:04:57;;;;;;;10.10;6.03;;;18.90;99.90;;;19.68;100.00;97932.31;5031105;28;20450;-81
2021/06/28 07:07:27;;;;;;;6.10;5.00;;;19.00;99.90;;;19.77;100.00;97936.13;5033145;28;20535;-81
2021/06/28 07:09:57;;;;;;;10.00;5.50;;;19.10;99.90;;;19.85;100.00;97933.06;5033522;28;20858;-81
2021/06/28 07:12:26;;;;;;;7.77;6.00;;;19.10;99.90;;;19.93;100.00;97932.59;5031541;28;20508;-81
2021/06/28 07:14:57;;;;;;;10.63;5.97;;;19.30;99.90;;;20.01;100.00;97926.84;5033212;28;20992;-81
2021/06/28 07:20:15;;;;;;;7.00;5.10;;;19.40;99.90;;;20.19;100.00;97928.34;5029419;28;20532;-81
2021/06/28 07:22:46;;;;;;;8.90;5.00;;;19.50;99.90;;;20.26;100.00;97935.06;5033296;28;20484;-82
2021/06/28 07:25:19;;;;;;;6.40;5.00;;;19.60;99.90;;;20.33;100.00;97938.34;5032694;28;20466;-81
2021/06/28 07:27:49;;;;;;;5.73;5.13;;;19.70;99.90;;;20.41;100.00;97934.44;5032856;28;20464;-81
2021/06/28 07:30:24;;;;;;;7.33;4.70;;;19.70;99.90;;;20.51;100.00;97939.84;5031348;28;20465;-81
2021/06/28 07:33:00;;;;;;;10.10;5.60;;;19.80;99.90;;;20.63;100.00;97937.00;5031490;28;20507;-81
2021/06/28 07:35:29;;;;;;;5.73;5.10;;;20.00;99.90;;;20.71;100.00;97933.88;5032305;28;20453;-82
2021/06/28 07:38:09;;;;;;;9.03;4.60;;;20.10;99.90;;;20.80;100.00;97930.47;5031227;28;20496;-81
2021/06/28 07:40:42;;;;;;;15.07;4.63;;;20.20;99.90;;;20.90;100.00;97941.19;5031186;28;20852;-81
2021/06/28 07:43:16;;;;;;;5.27;4.60;;;20.30;99.90;;;20.99;100.00;97952.16;5031869;28;20449;-81
2021/06/28 07:45:47;;;;;;;7.90;5.17;;;20.30;99.90;;;21.03;100.00;97946.06;5032524;28;20446;-82
2021/06/28 07:48:19;;;;;;;7.33;4.80;;;20.30;99.90;;;21.10;100.00;97943.22;5032356;28;20466;-81
2021/06/28 07:53:48;;;;;;;6.00;5.10;;;20.50;99.90;;;21.27;100.00;97953.69;5029738;28;20462;-81
2021/06/28 07:56:37;;;;;;;9.03;5.60;;;20.50;99.90;;;21.34;100.00;97960.38;5032094;28;20523;-82
2021/06/28 07:59:22;;;;;;;6.07;4.13;;;20.70;99.90;;;21.42;100.00;97959.06;5025760;28;20551;-81
2021/06/28 08:01:58;;;;;;;6.13;4.30;;;20.70;99.90;;;21.47;100.00;97962.59;5028690;28;20466;-81
2021/06/28 08:04:30;;;;;;;6.87;4.60;;;20.80;99.90;;;21.49;100.00;97968.44;5023509;28;20960;-81
2021/06/28 08:07:00;;;;;;;7.37;4.40;;;20.80;99.90;;;21.51;100.00;98000.13;5032266;28;20465;-81
2021/06/28 08:09:30;;;;;;;5.03;4.53;;;20.80;99.90;;;21.54;100.00;98008.41;5024654;28;20545;-81
2021/06/28 08:12:05;;;;;;;10.23;4.90;;;20.90;99.90;;;21.55;100.00;97996.66;5029835;28;20462;-82
2021/06/28 08:14:37;;;;;;;8.10;4.90;;;20.90;99.90;;;21.59;100.00;97991.63;5030508;28;20446;-81
2021/06/28 08:17:06;;;;;;;6.07;4.60;;;21.00;99.90;;;21.54;100.00;98019.03;5032365;28;20458;-82
2021/06/28 08:19:42;;;;;;;11.80;4.90;;;20.90;99.90;;;21.54;100.00;98021.69;5031810;28;20584;-81
2021/06/28 08:22:15;;;;;;;7.60;4.40;;;20.90;99.90;;;21.56;100.00;98027.56;5031685;28;20527;-82
2021/06/28 08:24:50;;;;;;;8.20;4.20;;;20.90;99.90;;;21.55;100.00;98017.97;5031785;28;20887;-82
2021/06/28 08:27:39;;;;;;;5.47;4.60;;;20.80;99.90;;;21.59;100.00;98016.38;5024941;28;20559;-82
2021/06/28 08:30:12;;;;;;;6.80;4.13;;;20.80;99.90;;;21.64;100.00;98018.28;5031542;28;20494;-82
2021/06/28 08:32:43;;;;;;;6.90;4.73;;;20.80;99.90;;;21.68;100.00;98018.56;5032438;28;20556;-82
2021/06/28 08:35:18;;;;;;;6.83;4.30;;;20.80;99.90;;;21.70;100.00;98013.78;5023247;28;20462;-82
2021/06/28 08:37:48;;;;;;;5.10;4.60;;;20.90;99.90;;;21.76;100.00;98010.09;5031045;28;20536;-82
2021/06/28 08:40:21;;;;;;;7.80;5.00;;;20.90;99.90;;;21.82;100.00;98014.38;5032371;28;20592;-82
2021/06/28 08:43:16;;;;;;;6.37;4.70;;;21.00;99.90;;;21.88;100.00;98018.66;5028813;28;20469;-82
2021/06/28 08:45:54;;;;;;;5.43;4.33;;;21.10;99.90;;;21.88;100.00;98018.66;5030651;28;20476;-82
2021/06/28 08:48:31;;;;;;;5.70;4.40;;;21.00;99.90;;;21.96;100.00;98012.88;5032027;28;20473;-82
2021/06/28 08:51:02;;;;;;;6.00;4.20;;;21.20;99.90;;;22.04;100.00;98001.72;5024739;28;20486;-82
2021/06/28 08:53:35;;;;;;;8.00;4.70;;;21.30;99.90;;;22.11;100.00;97985.50;5031015;28;20458;-82
2021/06/28 08:56:25;;;;;;;5.33;4.77;;;21.50;99.90;;;22.20;100.00;97979.38;5032274;28;20473;-82
2021/06/28 08:59:24;;;;;;;6.10;4.33;;;21.60;99.90;;;22.26;100.00;97975.66;5031660;28;20470;-82
2021/06/28 09:01:57;;;;;;;4.30;3.77;;;21.60;99.90;;;22.27;100.00;97981.78;5031805;28;20462;-81
2021/06/28 09:04:34;;;;;;;6.00;4.03;;;21.60;99.90;;;22.31;100.00;97991.66;5025328;28;20458;-82
2021/06/28 09:07:28;;;;;;;5.00;3.40;;;21.70;99.90;;;22.36;100.00;97982.88;5031609;28;20518;-82
2021/06/28 09:10:42;;;;;;;3.77;3.30;;;21.70;99.90;;;22.41;100.00;97981.03;5042954;28;20822;-82
2021/06/28 09:13:53;;;;;;;8.07;3.77;;;21.70;99.90;;;22.49;100.00;97983.16;5029824;28;20477;-82
2021/06/28 09:16:40;;;;;;;4.17;3.20;;;21.80;99.90;;;22.43;100.00;97978.88;5030758;28;20798;-81
2021/06/28 09:19:23;;;;;;;4.20;3.60;;;21.70;99.90;;;22.50;100.00;97987.44;5022403;28;20964;-82
2021/06/28 09:22:20;;;;;;;4.93;4.43;;;21.90;99.90;;;22.52;100.00;97993.31;5031120;28;20484;-82
2021/06/28 09:25:09;;;;;;;3.60;3.30;;;21.80;99.90;;;22.52;100.00;97990.66;5029694;28;20998;-82
2021/06/28 09:27:55;;;;;;;8.43;4.00;;;21.80;99.90;;;22.66;100.00;97987.44;5033067;28;20474;-82
2021/06/28 09:30:51;;;;;;;4.30;3.67;;;22.10;99.90;;;22.69;100.00;97976.28;5029616;28;20476;-82
2021/06/28 09:33:43;;;;;;;4.80;3.30;;;22.00;99.90;;;22.67;100.00;97983.72;5029172;28;20457;-81
2021/06/28 09:36:26;;;;;;;4.87;3.37;;;21.90;99.90;;;22.76;100.00;97985.63;5031072;28;20507;-81
2021/06/28 09:38:55;;;;;;;6.83;3.57;;;22.10;99.90;;;22.77;100.00;97978.44;5030222;28;20458;-81
2021/06/28 09:41:35;;;;;;;5.13;3.60;;;22.10;99.90;;;22.86;100.00;97974.94;5030399;28;20580;-82
2021/06/28 09:44:13;;;;;;;8.27;3.40;;;22.30;99.90;;;22.87;100.00;97979.19;5031130;28;21105;-81
2021/06/28 09:47:13;;;;;;;7.30;3.70;;;22.10;99.90;;;22.88;100.00;97974.66;5022175;28;20446;-81
2021/06/28 09:50:09;;;;;;;4.60;3.77;;;22.20;99.90;;;22.98;100.00;97964.78;5023109;28;20832;-81
2021/06/28 09:52:47;;;;;;;5.20;3.97;;;22.30;99.90;;;22.95;100.00;97964.53;5027954;28;20481;-81
2021/06/28 09:55:29;;;;;;;5.90;3.50;;;22.20;99.90;;;23.05;100.00;97962.66;5034750;28;20480;-81
2021/06/28 09:58:29;;;;;;;5.30;3.47;;;22.40;99.90;;;23.04;100.00;97960.25;5017023;28;20473;-81
2021/06/28 10:01:06;;;;;;;4.20;3.80;;;22.30;99.90;;;23.09;100.00;97954.91;5034769;28;20551;-82
2021/06/28 10:07:16;;;;;;;7.03;4.27;;;22.50;99.90;;;23.25;100.00;97958.34;5030093;28;20495;-81
2021/06/28 10:10:14;;;;;;;8.43;3.47;;;22.60;99.90;;;23.30;100.00;97967.13;5029645;28;20493;-81
2021/06/28 10:12:49;;;;;;;4.80;3.60;;;22.70;99.90;;;23.31;100.00;97963.41;5028051;28;20564;-81
2021/06/28 10:15:53;;;;;;;4.60;3.00;;;22.70;99.90;;;23.38;100.00;97963.94;5026435;28;20473;-81
2021/06/28 10:18:40;;;;;;;5.20;3.80;;;22.80;99.90;;;23.39;100.00;97970.06;5035480;28;20456;-81
2021/06/28 10:21:31;;;;;;;3.60;3.27;;;22.80;99.90;;;23.38;100.00;97961.25;5034442;28;20501;-76
2021/06/28 10:24:09;;;;;;;5.17;3.50;;;22.70;99.90;;;23.43;100.00;97958.59;5026799;28;20458;-82
2021/06/28 10:26:55;;;;;;;4.07;3.67;;;22.80;99.90;;;23.42;100.00;97962.34;5034861;28;20484;-81
2021/06/28 10:29:37;;;;;;;4.23;3.40;;;22.70;99.90;;;23.48;100.00;97961.25;5034751;28;20460;-81
2021/06/28 10:32:11;;;;;;;4.40;3.30;;;22.90;99.90;;;23.52;100.00;97966.84;5027448;28;20528;-81
2021/06/28 10:34:50;;;;;;;5.30;3.70;;;22.90;99.90;;;23.57;100.00;97963.38;5035207;28;20466;-81
2021/06/28 10:37:48;;;;;;;4.33;3.20;;;22.90;99.90;;;23.65;100.00;97952.09;5033445;28;20486;-82
2021/06/28 10:40:44;;;;;;;4.80;3.47;;;23.00;99.90;;;23.74;100.00;97955.84;5026173;28;20501;-81
2021/06/28 10:43:32;;;;;;;9.27;4.00;;;23.20;99.90;;;23.82;100.00;97957.91;5033053;28;20460;-81
2021/06/28 10:46:46;;;;;;;5.27;4.03;;;23.20;99.90;;;23.82;100.00;97955.25;5032565;28;20462;-81